createdAt,value
2019-05-23T00:01:23.567Z,97781.89
2019-05-23T00:03:53.601Z,97793.53
2019-05-23T00:06:36.065Z,97788.41
2019-05-23T00:09:06.746Z,97792.34
2019-05-23T00:11:44.705Z,97798.91
2019-05-23T00:14:24.025Z,97797.25
2019-05-23T00:16:54.143Z,97794.33
2019-05-23T00:19:23.802Z,97788.33
2019-05-23T00:21:53.016Z,97789.25
2019-05-23T00:24:22.211Z,97793.50
2019-05-23T00:26:51.033Z,97789.34
2019-05-23T00:29:19.765Z,97784.77
2019-05-23T00:31:56.098Z,97793.05
2019-05-23T00:34:25.706Z,97786.30
2019-05-23T00:36:55.961Z,97791.66
2019-05-23T00:39:24.527Z,97790.36
2019-05-23T00:41:53.734Z,97787.78
2019-05-23T00:44:22.957Z,97785.19
2019-05-23T00:46:52.681Z,97791.56
2019-05-23T00:49:22.080Z,97789.36
2019-05-23T00:51:50.599Z,97790.66
2019-05-23T00:54:20.903Z,97784.73
2019-05-23T00:56:50.159Z,97793.38
2019-05-23T00:59:26.662Z,97791.75
2019-05-23T01:01:49.116Z,97794.92
2019-05-23T01:04:17.976Z,97795.44
2019-05-23T01:06:47.740Z,97786.14
2019-05-23T01:09:16.837Z,97789.70
2019-05-23T01:11:46.349Z,97793.63
2019-05-23T01:14:15.055Z,97789.88
2019-05-23T01:16:43.456Z,97794.25
2019-05-23T01:19:12.114Z,97791.34
2019-05-23T01:21:42.226Z,97792.72
2019-05-23T01:24:12.280Z,97801.72
2019-05-23T01:26:41.809Z,97800.84
2019-05-23T01:29:11.145Z,97805.56
2019-05-23T01:31:41.205Z,97804.31
2019-05-23T01:34:11.555Z,97802.27
2019-05-23T01:36:40.126Z,97801.60
2019-05-23T01:39:10.276Z,97799.55
2019-05-23T01:41:39.427Z,97808.60
2019-05-23T01:44:08.411Z,97802.69
2019-05-23T01:46:36.795Z,97806.27
2019-05-23T01:49:06.733Z,97806.84
2019-05-23T01:51:36.752Z,97803.13
2019-05-23T01:54:05.850Z,97803.30
2019-05-23T01:56:34.584Z,97813.30
2019-05-23T01:59:03.812Z,97811.74
2019-05-23T02:01:32.481Z,97810.91
2019-05-23T02:04:02.442Z,97813.53
2019-05-23T02:06:31.065Z,97816.61
2019-05-23T02:08:59.525Z,97812.81
2019-05-23T02:11:28.953Z,97814.60
2019-05-23T02:13:57.411Z,97818.09
2019-05-23T02:16:27.340Z,97822.09
2019-05-23T02:18:55.737Z,97821.29
2019-05-23T02:21:26.277Z,97817.98
2019-05-23T02:23:54.918Z,97817.16
2019-05-23T02:26:24.148Z,97813.77
2019-05-23T02:28:53.049Z,97821.59
2019-05-23T02:31:21.529Z,97819.91
2019-05-23T02:33:50.175Z,97823.38
2019-05-23T02:36:18.561Z,97826.86
2019-05-23T02:38:54.286Z,97823.52
2019-05-23T02:41:27.367Z,97828.75
2019-05-23T02:43:58.288Z,97831.34
2019-05-23T02:46:31.016Z,97829.77
2019-05-23T02:49:01.182Z,97830.68
2019-05-23T02:51:37.043Z,97825.62
2019-05-23T02:54:10.126Z,97824.86
2019-05-23T02:56:39.935Z,97832.22
2019-05-23T02:59:18.881Z,97821.52
2019-05-23T03:02:20.689Z,97831.94
2019-05-23T03:04:49.916Z,97827.27
2019-05-23T03:07:21.832Z,97826.44
2019-05-23T03:09:51.695Z,97832.15
2019-05-23T03:12:24.997Z,97822.80
2019-05-23T03:14:51.561Z,97821.94
2019-05-23T03:17:24.502Z,97817.65
2019-05-23T03:19:57.740Z,97814.58
2019-05-23T03:22:31.724Z,97820.19
2019-05-23T03:25:04.410Z,97821.16
2019-05-23T03:27:35.840Z,97818.63
2019-05-23T03:30:08.210Z,97824.66
2019-05-23T03:32:44.965Z,97828.52
2019-05-23T03:35:16.027Z,97817.82
2019-05-23T03:37:45.899Z,97827.36
2019-05-23T03:40:16.159Z,97824.44
2019-05-23T03:42:45.997Z,97821.47
2019-05-23T03:45:16.297Z,97821.53
2019-05-23T03:47:46.017Z,97822.44
2019-05-23T03:50:14.457Z,97818.61
2019-05-23T03:52:43.941Z,97815.26
2019-05-23T03:55:13.180Z,97814.03
2019-05-23T03:57:42.233Z,97817.00
2019-05-23T04:00:14.306Z,97820.73
2019-05-23T04:02:44.322Z,97820.73
2019-05-23T04:05:13.762Z,97815.58
2019-05-23T04:07:42.595Z,97822.86
2019-05-23T04:10:12.292Z,97825.02
2019-05-23T04:12:40.851Z,97817.80
2019-05-23T04:15:10.876Z,97818.64
2019-05-23T04:17:39.267Z,97819.51
2019-05-23T04:20:08.873Z,97822.19
2019-05-23T04:22:37.325Z,97824.38
2019-05-23T04:25:07.527Z,97827.44
2019-05-23T04:27:36.820Z,97830.50
2019-05-23T04:30:06.918Z,97833.95
2019-05-23T04:32:35.488Z,97834.81
2019-05-23T04:35:05.989Z,97835.78
2019-05-23T04:37:35.044Z,97838.45
2019-05-23T04:40:05.543Z,97838.03
2019-05-23T04:42:34.021Z,97834.59
2019-05-23T04:45:03.079Z,97833.30
2019-05-23T04:47:31.752Z,97842.55
2019-05-23T04:50:00.564Z,97841.55
2019-05-23T04:52:29.105Z,97845.74
2019-05-23T04:54:58.535Z,97844.80
2019-05-23T04:57:27.479Z,97844.74
2019-05-23T04:59:56.230Z,97847.26
2019-05-23T05:02:27.169Z,97848.93
2019-05-23T05:04:56.294Z,97850.61
2019-05-23T05:07:24.862Z,97852.34
2019-05-23T05:09:53.240Z,97853.16
2019-05-23T05:12:22.308Z,97849.64
2019-05-23T05:14:51.271Z,97859.44
2019-05-23T05:17:19.725Z,97867.07
2019-05-23T05:19:48.112Z,97868.65
2019-05-23T05:22:16.955Z,97866.00
2019-05-23T05:24:45.415Z,97869.38
2019-05-23T05:27:14.374Z,97876.64
2019-05-23T05:29:42.756Z,97874.41
2019-05-23T05:32:11.180Z,97871.38
2019-05-23T05:34:39.562Z,97870.50
2019-05-23T05:37:08.101Z,97874.41
2019-05-23T05:39:37.275Z,97875.80
2019-05-23T05:42:07.330Z,97879.73
2019-05-23T05:44:36.153Z,97880.67
2019-05-23T05:47:05.191Z,97880.32
2019-05-23T05:49:33.745Z,97882.90
2019-05-23T05:52:02.211Z,97882.58
2019-05-23T05:54:30.586Z,97888.22
2019-05-23T05:57:00.568Z,97880.52
2019-05-23T05:59:29.728Z,97883.42
2019-05-23T06:01:58.924Z,97887.96
2019-05-23T06:04:27.458Z,97890.52
2019-05-23T06:06:57.500Z,97882.52
2019-05-23T06:09:27.572Z,97885.96
2019-05-23T06:11:56.404Z,97886.97
2019-05-23T06:14:24.795Z,97883.77
2019-05-23T06:16:55.164Z,97859.50
2019-05-23T06:19:24.002Z,97887.17
2019-05-23T06:21:52.459Z,97889.41
2019-05-23T06:24:39.461Z,97886.00
2019-05-23T06:26:51.558Z,97888.92
2019-05-23T06:29:20.331Z,97883.84
2019-05-23T06:31:48.868Z,97881.98
2019-05-23T06:34:17.389Z,97881.18
2019-05-23T06:36:46.948Z,97885.05
2019-05-23T06:39:15.632Z,97885.64
2019-05-23T06:41:44.111Z,97844.81
2019-05-23T06:44:13.119Z,97884.65
2019-05-23T06:46:41.585Z,97878.38
2019-05-23T06:49:10.061Z,97857.02
2019-05-23T06:51:38.520Z,97881.77
2019-05-23T06:54:06.981Z,97884.27
2019-05-23T06:56:35.559Z,97880.19
2019-05-23T06:59:04.626Z,97881.40
2019-05-23T07:01:33.195Z,97885.41
2019-05-23T07:04:01.723Z,97880.42
2019-05-23T07:06:30.106Z,97884.65
2019-05-23T07:08:58.954Z,97883.24
2019-05-23T07:11:28.154Z,97883.47
2019-05-23T07:13:56.883Z,97883.88
2019-05-23T07:16:25.340Z,97882.69
2019-05-23T07:18:53.809Z,97881.52
2019-05-23T07:21:22.547Z,97873.34
2019-05-23T07:23:50.951Z,97871.81
2019-05-23T07:26:19.661Z,97868.11
2019-05-23T07:28:48.556Z,97874.10
2019-05-23T07:31:17.419Z,97869.41
2019-05-23T07:34:00.321Z,97840.80
2019-05-23T07:36:16.249Z,97869.11
2019-05-23T07:38:44.789Z,97865.27
2019-05-23T07:41:13.866Z,97862.05
2019-05-23T07:43:42.252Z,97869.93
2019-05-23T07:46:10.731Z,97868.77
2019-05-23T07:48:39.444Z,97863.64
2019-05-23T07:51:07.833Z,97870.02
2019-05-23T07:53:50.147Z,97866.36
2019-05-23T07:56:21.402Z,97858.16
2019-05-23T07:58:49.842Z,97865.30
2019-05-23T08:01:19.894Z,97858.09
2019-05-23T08:03:51.195Z,97860.84
2019-05-23T08:06:20.021Z,97862.68
2019-05-23T08:08:50.043Z,97860.84
2019-05-23T08:11:18.805Z,97859.66
2019-05-23T08:13:48.735Z,97857.95
2019-05-23T08:16:17.464Z,97858.78
2019-05-23T08:18:45.994Z,97856.11
2019-05-23T08:21:14.515Z,97855.62
2019-05-23T08:23:42.934Z,97844.98
2019-05-23T08:26:12.923Z,97849.95
2019-05-23T08:29:00.964Z,97846.91
2019-05-23T08:31:12.322Z,97848.30
2019-05-23T08:33:40.864Z,97848.44
2019-05-23T08:36:10.009Z,97845.55
2019-05-23T08:38:38.915Z,97840.61
2019-05-23T08:41:07.919Z,97837.78
2019-05-23T08:43:36.326Z,97836.55
2019-05-23T08:46:05.456Z,97843.14
2019-05-23T08:48:34.026Z,97842.20
2019-05-23T08:51:02.740Z,97841.14
2019-05-23T08:53:31.150Z,97837.81
2019-05-23T08:55:59.750Z,97839.13
2019-05-23T08:58:28.190Z,97834.83
2019-05-23T09:00:56.715Z,97835.22
2019-05-23T09:03:25.644Z,97832.72
2019-05-23T09:05:54.520Z,97836.66
2019-05-23T09:08:24.388Z,97829.90
2019-05-23T09:10:52.794Z,97830.22
2019-05-23T09:13:21.525Z,97819.18
2019-05-23T09:15:52.893Z,97827.16
2019-05-23T09:18:20.136Z,97833.68
2019-05-23T09:20:48.546Z,97832.08
2019-05-23T09:23:16.929Z,97830.00
2019-05-23T09:25:45.383Z,97827.88
2019-05-23T09:28:14.139Z,97824.41
2019-05-23T09:30:42.732Z,97830.64
2019-05-23T09:33:11.112Z,97825.11
2019-05-23T09:35:40.075Z,97820.59
2019-05-23T09:38:08.657Z,97821.67
2019-05-23T09:40:37.045Z,97823.50
2019-05-23T09:43:06.002Z,97817.45
2019-05-23T09:45:34.520Z,97815.23
2019-05-23T09:48:03.364Z,97808.16
2019-05-23T09:50:32.430Z,97809.84
2019-05-23T09:53:01.160Z,97806.24
2019-05-23T09:55:30.289Z,97802.94
2019-05-23T09:57:58.702Z,97803.53
2019-05-23T10:00:27.115Z,97801.37
2019-05-23T10:02:55.691Z,97805.36
2019-05-23T10:05:40.693Z,97800.14
2019-05-23T10:07:54.223Z,97800.42
2019-05-23T10:10:22.876Z,97791.84
2019-05-23T10:12:51.409Z,97796.30
2019-05-23T10:15:40.127Z,97793.49
2019-05-23T10:18:19.082Z,97793.95
2019-05-23T10:20:47.527Z,97796.23
2019-05-23T10:23:15.980Z,97787.63
2019-05-23T10:25:45.020Z,97791.89
2019-05-23T10:28:14.307Z,97791.72
2019-05-23T10:30:42.721Z,97785.11
2019-05-23T10:33:12.961Z,97786.30
2019-05-23T10:35:56.918Z,97783.19
2019-05-23T10:38:11.567Z,97783.52
2019-05-23T10:40:40.047Z,97783.27
2019-05-23T10:43:09.195Z,97785.75
2019-05-23T10:45:37.677Z,97777.91
2019-05-23T10:48:06.905Z,97773.41
2019-05-23T10:50:44.091Z,97769.35
2019-05-23T10:53:05.529Z,97764.38
2019-05-23T10:55:33.978Z,97758.00
2019-05-23T10:58:03.378Z,97754.88
2019-05-23T11:00:32.514Z,97759.62
2019-05-23T11:03:01.247Z,97760.80
2019-05-23T11:05:29.850Z,97753.45
2019-05-23T11:07:59.329Z,97752.72
2019-05-23T11:10:28.683Z,97758.12
2019-05-23T11:12:57.183Z,97750.45
2019-05-23T11:15:25.709Z,97744.87
2019-05-23T11:17:54.372Z,97750.45
2019-05-23T11:20:22.999Z,97736.66
2019-05-23T11:22:51.525Z,97741.75
2019-05-23T11:25:19.974Z,97747.09
2019-05-23T11:27:48.463Z,97741.08
2019-05-23T11:30:20.576Z,97733.02
2019-05-23T11:32:48.988Z,97733.92
2019-05-23T11:35:17.471Z,97734.75
2019-05-23T11:37:45.854Z,97731.39
2019-05-23T11:40:14.311Z,97736.38
2019-05-23T11:42:42.757Z,97726.38
2019-05-23T11:45:13.047Z,97727.70
2019-05-23T11:47:41.452Z,97727.70
2019-05-23T11:50:10.288Z,97715.36
2019-05-23T11:52:38.775Z,97727.33
2019-05-23T11:55:08.745Z,97727.33
2019-05-23T11:57:38.482Z,97726.78
2019-05-23T12:00:10.622Z,97703.31
2019-05-23T12:02:43.936Z,97710.52
2019-05-23T12:05:20.502Z,97710.52
2019-05-23T12:07:48.967Z,97707.33
2019-05-23T12:10:18.506Z,97697.69
2019-05-23T12:12:47.015Z,97696.87
2019-05-23T12:15:20.748Z,97690.11
2019-05-23T12:17:49.153Z,97689.73
2019-05-23T12:20:18.259Z,97689.73
2019-05-23T12:22:47.195Z,97685.03
2019-05-23T12:25:22.377Z,97684.69
2019-05-23T12:27:46.145Z,97672.42
2019-05-23T12:30:16.632Z,97672.42
2019-05-23T12:32:45.013Z,97678.77
2019-05-23T12:35:13.529Z,97669.12
2019-05-23T12:37:41.994Z,97663.88
2019-05-23T12:40:12.516Z,97666.50
2019-05-23T12:42:40.903Z,97669.22
2019-05-23T12:45:11.894Z,97666.11
2019-05-23T12:47:44.620Z,97635.07
2019-05-23T12:50:20.498Z,97663.86
2019-05-23T12:52:48.960Z,97657.39
2019-05-23T12:55:17.590Z,97651.19
2019-05-23T12:57:46.108Z,97647.23
2019-05-23T13:00:25.667Z,97649.05
2019-05-23T13:02:54.988Z,97647.75
2019-05-23T13:05:23.709Z,97645.93
2019-05-23T13:07:52.472Z,97643.45
2019-05-23T13:10:24.752Z,97642.83
2019-05-23T13:12:51.410Z,97641.44
2019-05-23T13:15:21.097Z,97640.13
2019-05-23T13:17:49.484Z,97639.59
2019-05-23T13:20:18.303Z,97634.72
2019-05-23T13:22:47.032Z,97636.70
2019-05-23T13:25:16.074Z,97636.70
2019-05-23T13:27:44.459Z,97639.34
2019-05-23T13:30:13.312Z,97630.03
2019-05-23T13:32:41.943Z,97635.75
2019-05-23T13:35:10.386Z,97634.98
2019-05-23T13:37:52.498Z,97630.61
2019-05-23T13:40:10.229Z,97625.00
2019-05-23T13:42:38.767Z,97625.00
2019-05-23T13:45:07.915Z,97630.80
2019-05-23T13:47:36.471Z,97626.62
2019-05-23T13:50:06.676Z,97626.62
2019-05-23T13:52:35.549Z,97618.89
2019-05-23T13:55:08.110Z,97623.33
2019-05-23T13:57:37.201Z,97621.03
2019-05-23T14:00:07.718Z,97613.38
2019-05-23T14:02:36.398Z,97617.30
2019-05-23T14:05:07.492Z,97616.82
2019-05-23T14:07:36.594Z,97607.52
2019-05-23T14:10:09.879Z,97604.80
2019-05-23T14:12:38.600Z,97605.49
2019-05-23T14:15:09.215Z,97590.91
2019-05-23T14:17:39.335Z,97601.49
2019-05-23T14:20:08.143Z,97598.77
2019-05-23T14:22:38.174Z,97595.97
2019-05-23T14:25:07.103Z,97594.55
2019-05-23T14:27:42.730Z,97592.52
2019-05-23T14:30:29.126Z,97584.14
2019-05-23T14:32:59.785Z,97584.14
2019-05-23T14:35:29.828Z,97596.48
2019-05-23T14:37:59.911Z,97585.77
2019-05-23T14:40:28.654Z,97585.77
2019-05-23T14:42:58.744Z,97590.91
2019-05-23T14:45:31.519Z,97582.80
2019-05-23T14:48:01.917Z,97580.50
2019-05-23T14:50:38.419Z,97578.23
2019-05-23T14:53:08.554Z,97580.30
2019-05-23T14:55:36.937Z,97575.11
2019-05-23T14:58:06.320Z,97575.11
2019-05-23T15:00:35.346Z,97577.27
2019-05-23T15:03:04.808Z,97571.17
2019-05-23T15:05:33.638Z,97568.00
2019-05-23T15:08:02.059Z,97568.00
2019-05-23T15:10:30.612Z,97568.14
2019-05-23T15:12:59.612Z,97565.17
2019-05-23T15:15:28.110Z,97562.76
2019-05-23T15:17:56.467Z,97562.76
2019-05-23T15:20:25.020Z,97565.52
2019-05-23T15:22:53.440Z,97574.17
2019-05-23T15:25:21.905Z,97571.03
2019-05-23T15:27:50.290Z,97563.00
2019-05-23T15:30:19.050Z,97569.03
2019-05-23T15:32:47.500Z,97565.92
2019-05-23T15:35:16.228Z,97567.13
2019-05-23T15:37:44.699Z,97560.69
2019-05-23T15:40:13.211Z,97561.65
2019-05-23T15:42:41.595Z,97555.55
2019-05-23T15:45:10.274Z,97555.20
2019-05-23T15:47:38.722Z,97552.48
2019-05-23T15:50:12.230Z,97544.03
2019-05-23T15:52:48.599Z,97542.34
2019-05-23T15:55:21.822Z,97545.03
2019-05-23T15:57:51.931Z,97544.93
2019-05-23T16:00:24.990Z,97540.52
2019-05-23T16:03:00.943Z,97540.89
2019-05-23T16:05:29.334Z,97537.69
2019-05-23T16:07:57.785Z,97537.65
2019-05-23T16:10:27.122Z,97535.55
2019-05-23T16:12:55.536Z,97532.75
2019-05-23T16:15:24.238Z,97541.58
2019-05-23T16:17:52.684Z,97540.30
2019-05-23T16:20:21.144Z,97542.11
2019-05-23T16:22:49.524Z,97535.62
2019-05-23T16:25:18.011Z,97535.97
2019-05-23T16:27:46.409Z,97534.62
2019-05-23T16:30:15.127Z,97531.18
2019-05-23T16:32:46.563Z,97530.47
2019-05-23T16:35:13.632Z,97530.39
2019-05-23T16:37:42.086Z,97529.67
2019-05-23T16:40:10.638Z,97506.77
2019-05-23T16:42:39.112Z,97530.00
2019-05-23T16:45:08.052Z,97531.64
2019-05-23T16:47:36.772Z,97532.52
2019-05-23T16:50:08.127Z,97534.17
2019-05-23T16:52:36.880Z,97533.16
2019-05-23T16:55:07.832Z,97522.67
2019-05-23T16:57:37.933Z,97527.36
2019-05-23T17:00:16.811Z,97526.82
2019-05-23T17:02:46.908Z,97529.95
2019-05-23T17:05:33.512Z,97527.22
2019-05-23T17:08:12.299Z,97521.91
2019-05-23T17:10:42.482Z,97519.61
2019-05-23T17:13:12.513Z,97519.97
2019-05-23T17:15:42.536Z,97525.66
2019-05-23T17:18:21.646Z,97522.44
2019-05-23T17:20:54.086Z,97517.98
2019-05-23T17:23:40.349Z,97519.23
2019-05-23T17:26:26.074Z,97500.17
2019-05-23T17:28:58.695Z,97517.41
2019-05-23T17:31:37.515Z,97517.41
2019-05-23T17:34:06.483Z,97522.27
2019-05-23T17:36:35.859Z,97522.69
2019-05-23T17:39:07.474Z,97523.47
2019-05-23T17:41:36.895Z,97522.75
2019-05-23T17:44:05.850Z,97520.68
2019-05-23T17:46:34.326Z,97513.58
2019-05-23T17:49:02.747Z,97515.99
2019-05-23T17:51:31.626Z,97511.69
2019-05-23T17:54:00.126Z,97512.27
2019-05-23T17:56:28.503Z,97511.89
2019-05-23T17:58:57.451Z,97500.92
2019-05-23T18:01:26.370Z,97504.64
2019-05-23T18:03:55.003Z,97510.27
2019-05-23T18:06:23.512Z,97510.27
2019-05-23T18:08:52.585Z,97511.92
2019-05-23T18:11:21.012Z,97515.40
2019-05-23T18:13:49.671Z,97511.57
2019-05-23T18:16:19.411Z,97511.98
2019-05-23T18:18:48.051Z,97513.72
2019-05-23T18:21:17.212Z,97513.72
2019-05-23T18:23:45.790Z,97516.56
2019-05-23T18:26:14.516Z,97520.35
2019-05-23T18:28:43.495Z,97522.83
2019-05-23T18:31:16.244Z,97523.22
2019-05-23T18:33:44.678Z,97516.73
2019-05-23T18:36:14.257Z,97516.73
2019-05-23T18:38:42.700Z,97520.75
2019-05-23T18:41:11.527Z,97524.33
2019-05-23T18:43:40.004Z,97527.42
2019-05-23T18:46:19.291Z,97533.23
2019-05-23T18:48:56.396Z,97532.30
2019-05-23T18:51:25.013Z,97533.41
2019-05-23T18:53:53.391Z,97537.72
2019-05-23T18:56:21.834Z,97533.05
2019-05-23T18:58:50.452Z,97537.44
2019-05-23T19:01:20.007Z,97536.20
2019-05-23T19:03:48.461Z,97538.55
2019-05-23T19:06:16.861Z,97538.27
2019-05-23T19:08:45.354Z,97541.23
2019-05-23T19:11:20.660Z,97545.16
2019-05-23T19:13:44.374Z,97550.06
2019-05-23T19:16:12.808Z,97545.67
2019-05-23T19:18:41.644Z,97550.33
2019-05-23T19:21:11.455Z,97556.38
2019-05-23T19:23:39.932Z,97556.64
2019-05-23T19:26:08.755Z,97557.91
2019-05-23T19:28:37.241Z,97556.60
2019-05-23T19:31:06.220Z,97558.25
2019-05-23T19:33:35.613Z,97557.34
2019-05-23T19:36:05.222Z,97557.22
2019-05-23T19:38:33.608Z,97557.20
2019-05-23T19:41:02.320Z,97559.67
2019-05-23T19:43:30.842Z,97562.92
2019-05-23T19:45:59.323Z,97557.22
2019-05-23T19:48:28.116Z,97551.86
2019-05-23T19:50:57.074Z,97551.50
2019-05-23T19:53:25.705Z,97563.02
2019-05-23T19:55:59.536Z,97555.36
2019-05-23T19:58:28.294Z,97529.92
2019-05-23T20:00:57.222Z,97558.03
2019-05-23T20:03:25.873Z,97563.66
2019-05-23T20:05:55.757Z,97559.59
2019-05-23T20:08:24.408Z,97556.09
2019-05-23T20:10:53.066Z,97556.81
2019-05-23T20:13:22.896Z,97558.51
2019-05-23T20:15:51.552Z,97558.67
2019-05-23T20:18:19.965Z,97555.67
2019-05-23T20:20:48.679Z,97560.30
2019-05-23T20:23:17.706Z,97555.02
2019-05-23T20:25:46.334Z,97554.97
2019-05-23T20:28:16.090Z,97557.34
2019-05-23T20:30:48.311Z,97561.41
2019-05-23T20:33:16.713Z,97555.61
2019-05-23T20:35:45.201Z,97554.43
2019-05-23T20:38:13.697Z,97554.66
2019-05-23T20:40:42.238Z,97555.30
2019-05-23T20:43:10.689Z,97548.86
2019-05-23T20:45:39.514Z,97551.02
2019-05-23T20:48:08.265Z,97555.23
2019-05-23T20:50:37.005Z,97546.27
2019-05-23T20:53:05.766Z,97548.95
2019-05-23T20:55:34.713Z,97544.69
2019-05-23T20:58:03.959Z,97543.22
2019-05-23T21:00:33.985Z,97547.07
2019-05-23T21:03:03.148Z,97540.08
2019-05-23T21:05:31.918Z,97544.28
2019-05-23T21:08:00.369Z,97538.11
2019-05-23T21:10:43.901Z,97533.96
2019-05-23T21:13:12.415Z,97540.61
2019-05-23T21:15:41.155Z,97541.84
2019-05-23T21:18:10.928Z,97535.64
2019-05-23T21:20:39.424Z,97539.77
2019-05-23T21:23:08.110Z,97543.62
2019-05-23T21:25:38.183Z,97543.84
2019-05-23T21:28:06.564Z,97543.98
2019-05-23T21:30:35.083Z,97539.00
2019-05-23T21:33:03.750Z,97551.09
2019-05-23T21:35:32.391Z,97545.50
2019-05-23T21:38:00.847Z,97549.94
2019-05-23T21:40:38.147Z,97552.22
2019-05-23T21:43:06.626Z,97548.81
2019-05-23T21:45:35.165Z,97548.91
2019-05-23T21:48:03.805Z,97553.22
2019-05-23T21:50:32.504Z,97555.96
2019-05-23T21:53:00.881Z,97556.70
2019-05-23T21:55:37.073Z,97558.60
2019-05-23T21:58:06.289Z,97552.71
2019-05-23T22:01:06.298Z,97559.48
2019-05-23T22:03:52.766Z,97556.38
2019-05-23T22:06:27.487Z,97562.21
2019-05-23T22:08:56.247Z,97560.98
2019-05-23T22:11:24.941Z,97565.87
2019-05-23T22:13:53.348Z,97566.30
2019-05-23T22:16:21.763Z,97561.17
2019-05-23T22:18:50.144Z,97560.81
2019-05-23T22:21:18.598Z,97556.91
2019-05-23T22:23:47.070Z,97556.91
2019-05-23T22:26:15.465Z,97553.92
2019-05-23T22:28:44.215Z,97550.56
2019-05-23T22:31:12.890Z,97546.93
2019-05-23T22:33:42.921Z,97544.06
2019-05-23T22:36:11.893Z,97541.80
2019-05-23T22:38:40.272Z,97536.41
2019-05-23T22:41:08.691Z,97537.47
2019-05-23T22:43:37.099Z,97543.05
2019-05-23T22:46:05.556Z,97540.20
2019-05-23T22:48:34.029Z,97538.13
2019-05-23T22:51:02.435Z,97536.44
2019-05-23T22:53:30.871Z,97538.72
2019-05-23T22:55:59.270Z,97534.98
2019-05-23T22:58:27.719Z,97538.31
2019-05-23T23:00:56.158Z,97538.31
2019-05-23T23:03:24.642Z,97540.14
2019-05-23T23:05:53.102Z,97535.84
2019-05-23T23:08:21.938Z,97530.78
2019-05-23T23:10:50.440Z,97513.53
2019-05-23T23:13:18.844Z,97534.55
2019-05-23T23:15:47.253Z,97530.38
2019-05-23T23:18:15.744Z,97534.91
2019-05-23T23:20:45.811Z,97525.97
2019-05-23T23:23:14.285Z,97526.42
2019-05-23T23:25:42.787Z,97531.27
2019-05-23T23:28:11.216Z,97521.02
2019-05-23T23:30:43.945Z,97527.12
2019-05-23T23:33:12.437Z,97530.09
2019-05-23T23:35:40.836Z,97527.73
2019-05-23T23:38:09.718Z,97529.67
2019-05-23T23:40:38.250Z,97530.84
2019-05-23T23:43:06.677Z,97529.25
2019-05-23T23:45:52.996Z,97524.65
2019-05-23T23:48:39.166Z,97521.72
2019-05-23T23:51:25.363Z,97524.42
2019-05-23T23:54:11.208Z,97532.31
2019-05-23T23:56:57.714Z,97528.54
2019-05-23T23:59:25.419Z,97523.05
